Latest Weather Observations for Armidale Airport

IDN60801

Issued at 1:05 pm EST Wednesday 30 July 2014 (issued every 30 minutes, with the page automatically refreshed every 10 minutes)

About weather observations | Map of weather stations | Latest weather observations for NSW | Other Formats
Station Details ID: 056238 Name: ARMIDALE AIRPORT AWS Lat: -30.53 Lon: 151.62 Height: 1079.0 m
Data from the previous 72 hours. | See also: Recent months for locations in New South Wales
Date/Time
EST
Temp
°C
App
Temp
°C
Dew
Point
Rel
Hum
%
Delta-T
°C
Wind Press
QNH
hPa
Press
MSL
hPa
Rain
since 9 am
mm
Dir
 
Spd
km/h
Gust
km/h
Spd
kts
Gust
kts
30/01:00pm 13.6 8.0 -0.1 39 6.1 W 19 26 10 14 1022.0 1022.3 0.0
30/12:30pm 14.0 8.3 0.6 40 6.0 W 20 32 11 17 1022.6 - 0.0
30/12:00pm 13.6 7.5 0.3 40 5.9 W 22 28 12 15 1023.0 1023.3 0.0
30/11:30am 13.0 5.9 -1.0 38 6.1 W 26 32 14 17 1023.2 - 0.0
30/11:00am 13.2 6.5 -0.8 38 6.1 W 24 32 13 17 1023.6 1023.9 0.0
30/10:30am 12.7 6.0 -0.9 39 5.9 W 24 32 13 17 1023.8 - 0.0
30/10:00am 12.4 5.8 -0.5 41 5.6 W 24 32 13 17 1024.0 1024.4 0.0
30/09:30am 11.6 5.5 0.1 45 5.0 W 22 28 12 15 1024.0 - 0.0
30/09:00am 10.6 5.1 0.3 49 4.5 WNW 19 24 10 13 1024.2 1024.6 0.2
30/08:30am 9.0 4.3 1.2 58 3.4 WNW 15 20 8 11 1023.7 - 0.2
30/08:00am 6.9 2.6 1.2 67 2.4 WNW 13 17 7 9 1023.6 1023.9 0.2
30/07:30am 3.8 0.0 -0.4 74 1.7 WNW 9 11 5 6 1023.4 - 0.2
30/07:00am 2.4 -1.5 -1.2 77 1.4 WNW 9 11 5 6 1023.2 1023.6 0.2
30/06:30am 2.6 -1.3 -1.2 76 1.5 WNW 9 13 5 7 1023.0 - 0.2
30/06:00am 3.2 -1.7 -0.6 76 1.5 W 15 20 8 11 1022.7 1023.0 0.2
30/05:30am 3.0 -2.7 -0.8 76 1.5 W 19 20 10 11 1022.6 - 0.2
30/05:00am 3.2 -2.6 -0.4 77 1.4 W 20 22 11 12 1022.6 1022.9 0.2
30/04:30am 3.5 -2.2 -0.7 74 1.7 WNW 19 20 10 11 1022.2 - 0.2
30/04:00am 4.1 -1.6 -0.5 72 1.8 WNW 19 20 10 11 1022.1 1022.4 0.2
30/03:30am 3.7 -1.2 -0.5 74 1.7 WNW 15 17 8 9 1022.1 - 0.2
30/03:00am 3.9 -1.0 -0.7 72 1.8 WNW 15 19 8 10 1022.4 1022.7 0.2
30/02:30am 3.7 -1.2 -0.7 73 1.7 WNW 15 17 8 9 1022.4 - 0.2
30/02:00am 2.7 -2.3 -1.1 76 1.5 WNW 15 15 8 8 1022.4 1022.7 0.2
30/01:30am 3.1 -1.5 -1.1 74 1.6 WNW 13 13 7 7 1022.4 - 0.2
30/01:00am 3.0 -1.6 -1.0 75 1.6 W 13 15 7 8 1022.5 1022.8 0.2
30/12:30am 3.5 -1.1 -0.9 73 1.7 W 13 17 7 9 1022.7 - 0.2
30/12:00am 3.3 -1.7 -0.9 74 1.6 W 15 19 8 10 1022.5 1022.8 0.2
 
Date/Time
EST
Temp
°C
App
Temp
°C
Dew
Point
Rel
Hum
%
Delta-T
°C
Wind Press
QNH
hPa
Press
MSL
hPa
Rain
since 9 am
mm
Dir
 
Spd
km/h
Gust
km/h
Spd
kts
Gust
kts
29/11:30pm 3.4 -1.9 -0.6 75 1.6 W 17 20 9 11 1022.5 - 0.2
29/11:00pm 3.2 -1.7 -0.8 75 1.6 W 15 17 8 9 1022.7 1023.0 0.2
29/10:30pm 3.1 -1.8 -0.7 76 1.5 W 15 17 8 9 1022.9 - 0.2
29/10:00pm 3.2 -1.4 -1.0 74 1.6 W 13 15 7 8 1023.1 1023.5 0.2
29/09:30pm 4.6 0.4 -0.8 68 2.2 NW 11 13 6 7 1023.0 - 0.2
29/09:00pm 3.8 0.6 -0.6 73 1.7 NW 6 7 3 4 1023.0 1023.3 0.2
29/08:30pm 4.1 0.6 -1.1 69 2.1 WNW 7 11 4 6 1022.9 - 0.2
29/08:00pm 6.4 3.0 -0.3 62 2.7 SW 7 9 4 5 1022.8 1023.1 0.2
29/07:30pm 6.2 2.9 -0.1 64 2.6 SW 7 9 4 5 1022.2 - 0.2
29/07:00pm 6.3 3.0 0.2 65 2.5 W 7 9 4 5 1021.7 1022.0 0.2
29/06:30pm 6.2 2.9 -0.1 64 2.6 W 7 9 4 5 1021.1 - 0.2
29/06:00pm 7.5 3.8 0.0 59 3.1 W 9 13 5 7 1020.9 1021.2 0.2
29/05:30pm 8.1 4.8 -0.1 56 3.5 W 7 11 4 6 1020.9 - 0.2
29/05:00pm 10.6 5.4 0.1 48 4.5 W 17 22 9 12 1020.7 1021.0 0.2
29/04:30pm 11.9 6.1 -0.3 43 5.3 W 20 28 11 15 1020.5 - 0.2
29/04:00pm 12.6 5.6 -0.6 40 5.7 WNW 26 35 14 19 1020.4 1020.6 0.2
29/03:30pm 12.9 6.5 -1.4 37 6.1 W 22 30 12 16 1020.6 - 0.2
29/03:00pm 13.0 6.3 -1.0 38 6.0 W 24 35 13 19 1020.6 1020.8 0.2
29/02:30pm 13.3 6.8 0.0 40 5.9 W 24 33 13 18 1020.7 - 0.2
29/02:00pm 13.5 7.0 0.5 41 5.8 W 24 33 13 18 1020.8 1021.1 0.2
29/01:30pm 12.8 6.3 0.5 43 5.5 WNW 24 33 13 18 1021.1 - 0.2
29/01:00pm 11.9 5.7 2.1 51 4.5 WSW 24 33 13 18 1021.5 1021.8 0.0
29/12:30pm 11.9 4.5 1.8 50 4.6 WSW 30 39 16 21 1022.2 - 0.0
29/12:00pm 11.5 4.8 1.7 51 4.4 W 26 33 14 18 1022.6 1022.9 0.0
29/11:30am 11.0 4.1 2.3 55 4.0 W 28 35 15 19 1023.1 - 0.0
29/11:00am 10.5 3.6 2.4 57 3.7 W 28 37 15 20 1023.4 1023.7 0.0
29/10:30am 9.9 2.9 1.8 57 3.6 W 28 33 15 18 1023.7 - 0.0
29/10:00am 9.7 3.6 2.8 62 3.1 W 24 30 13 16 1023.8 1024.1 0.0
29/09:30am 8.9 2.8 2.5 64 2.9 W 24 32 13 17 1023.8 - 0.0
29/09:00am 8.2 3.0 3.3 71 2.2 W 20 28 11 15 1023.8 1024.1 0.2
29/08:30am 6.3 2.0 3.5 82 1.3 W 15 20 8 11 1023.5 - 0.2
29/08:00am 4.4 0.4 2.9 90 0.7 W 13 15 7 8 1023.2 1023.6 0.2
29/07:30am 2.2 -2.0 1.5 95 0.3 W 13 15 7 8 1023.0 - 0.2
29/07:00am 0.5 -3.9 0.2 98 0.1 WNW 13 15 7 8 1022.6 1022.9 0.2
29/06:30am 0.3 -4.2 0.0 98 0.1 W 13 13 7 7 1022.2 - 0.2
29/06:00am 1.0 -2.6 0.7 98 0.1 WNW 9 11 5 6 1021.9 1022.2 0.2
29/05:30am 1.1 -2.5 0.8 98 0.1 WNW 9 9 5 5 1021.4 - 0.2
29/05:00am 0.5 -3.5 0.2 98 0.1 W 11 13 6 7 1021.4 1021.6 0.2
29/04:30am 1.1 -3.2 0.8 98 0.1 W 13 15 7 8 1021.4 - 0.2
29/04:00am 1.3 -1.9 1.0 98 0.1 W 7 9 4 5 1021.1 1021.4 0.2
29/03:30am 1.5 -2.1 0.8 95 0.3 W 9 13 5 7 1021.1 - 0.2
29/03:00am 1.3 -3.1 0.6 95 0.3 W 13 15 7 8 1021.3 1021.5 0.2
29/02:30am 1.7 -2.3 0.8 94 0.4 W 11 13 6 7 1021.3 - 0.2
29/02:00am 0.7 -2.6 0.4 98 0.1 WNW 7 9 4 5 1021.4 1021.6 0.2
29/01:30am 1.0 -2.0 0.7 98 0.1 WNW 6 7 3 4 1021.7 - 0.2
29/01:00am 0.6 -2.5 -0.1 95 0.3 W 6 7 3 4 1021.8 1022.1 0.2
29/12:30am 1.7 -2.0 0.1 89 0.6 W 9 11 5 6 1021.8 - 0.2
29/12:00am 1.9 -1.0 1.6 98 0.1 W 6 7 3 4 1022.0 1022.3 0.2
 
Date/Time
EST
Temp
°C
App
Temp
°C
Dew
Point
Rel
Hum
%
Delta-T
°C
Wind Press
QNH
hPa
Press
MSL
hPa
Rain
since 9 am
mm
Dir
 
Spd
km/h
Gust
km/h
Spd
kts
Gust
kts
28/11:30pm 1.7 -1.4 1.4 98 0.1 WNW 7 9 4 5 1022.4 - 0.2
28/11:00pm 2.0 -0.9 1.7 98 0.1 WNW 6 7 3 4 1022.5 1022.8 0.2
28/10:30pm 2.4 -0.6 2.1 98 0.1 W 7 7 4 4 1022.5 - 0.2
28/10:00pm 1.9 -1.6 1.3 96 0.2 WNW 9 9 5 5 1022.7 1023.0 0.2
28/09:30pm 2.9 -0.2 1.3 89 0.7 W 7 9 4 5 1022.8 - 0.2
28/09:00pm 3.3 0.3 1.7 89 0.7 W 7 9 4 5 1022.7 1023.0 0.2
28/08:30pm 3.6 -0.3 1.3 85 1.0 W 11 13 6 7 1022.5 - 0.2
28/08:00pm 4.1 1.0 1.6 84 1.1 W 7 7 4 4 1022.7 1023.0 0.2
28/07:30pm 4.3 0.9 1.7 83 1.1 WNW 9 9 5 5 1022.4 - 0.2
28/07:00pm 5.2 1.5 2.2 81 1.3 W 11 11 6 6 1022.4 1022.7 0.2
28/06:30pm 6.0 3.0 2.3 77 1.6 W 7 11 4 6 1022.2 - 0.2
28/06:00pm 6.3 3.1 2.8 78 1.5 WSW 9 11 5 6 1022.0 1022.3 0.2
28/05:30pm 7.2 3.5 2.3 71 2.2 WNW 11 15 6 8 1021.9 - 0.2
28/05:00pm 9.7 5.8 3.2 64 3.0 WNW 13 19 7 10 1021.8 1022.1 0.2
28/04:30pm 10.8 5.7 2.9 58 3.7 WNW 19 24 10 13 1021.5 - 0.2
28/04:00pm 11.3 6.0 2.9 56 3.9 W 20 28 11 15 1021.4 1021.6 0.2
28/03:30pm 11.7 6.5 2.5 53 4.2 WNW 19 26 10 14 1021.3 - 0.2
28/03:00pm 11.6 6.2 2.4 53 4.2 W 20 26 11 14 1021.3 1021.5 0.2
28/02:30pm 11.7 6.4 3.0 55 4.1 W 20 20 11 11 1021.4 - 0.2
28/02:00pm 11.4 5.6 2.4 54 4.1 W 22 30 12 16 1021.5 1021.8 0.2
28/01:30pm 11.1 4.8 1.6 52 4.3 W 24 32 13 17 1021.6 - 0.2
28/01:00pm 11.1 4.7 1.1 50 4.4 WNW 24 32 13 17 1021.8 1022.1 0.2
28/12:30pm 10.5 4.5 1.3 53 4.1 W 22 30 12 16 1022.1 - 0.2
28/12:00pm 9.9 4.5 2.5 60 3.4 W 20 28 11 15 1022.8 1023.1 0.2
28/11:30am 9.5 3.7 2.4 61 3.2 WNW 22 30 12 16 1023.1 - 0.2
28/11:00am 9.0 4.0 3.6 69 2.5 W 19 26 10 14 1024.0 1024.4 0.0
28/10:30am 8.4 3.2 3.7 72 2.2 W 20 28 11 15 1024.5 - 0.0
28/10:00am 7.8 2.8 4.7 81 1.4 W 20 24 11 13 1024.6 1024.9 0.0
28/09:30am 6.8 1.8 4.8 87 0.9 W 20 26 11 14 1024.7 - 0.0
28/09:00am 6.0 2.2 5.7 98 0.1 W 15 20 8 11 1024.4 1024.7 0.0
28/08:30am 4.3 0.5 4.0 98 0.1 WNW 13 17 7 9 1023.7 - 0.0
28/08:00am 2.6 -0.7 2.5 99 0.0 W 9 13 5 7 1023.7 1024.0 0.0
28/07:30am 0.6 -3.0 0.5 99 0.0 W 9 11 5 6 1023.4 - 0.0
28/07:00am -0.1 -4.2 -0.4 98 0.1 WSW 11 13 6 7 1023.4 1023.7 0.0
28/06:30am 0.0 -3.4 -0.3 98 0.1 W 7 9 4 5 1022.8 - 0.0
28/06:00am 0.3 -3.4 0.0 98 0.1 W 9 9 5 5 1022.8 1023.1 0.0
28/05:30am 1.0 -2.6 0.9 99 0.0 WNW 9 11 5 6 1022.7 - 0.0
28/05:00am 0.7 -2.9 0.6 99 0.0 WNW 9 11 5 6 1022.6 1022.9 0.0
28/04:32am 1.9 -1.5 1.9 100 0.0 WNW 9 9 5 5 1022.2 - 0.0
28/04:30am 1.8 -1.6 1.7 99 0.0 WNW 9 9 5 5 1022.2 - 0.0
28/04:14am 1.4 -1.7 1.3 99 0.0 NW 7 9 4 5 1022.2 - 0.0
28/04:00am 1.7 -1.4 1.6 99 0.0 NNW 7 7 4 4 1022.2 1022.5 0.0
28/03:30am 0.6 -3.0 0.5 99 0.0 N 9 11 5 6 1021.9 - 0.0
28/03:00am 0.2 -3.9 -0.1 98 0.1 N 11 13 6 7 1022.2 1022.5 0.0
28/02:30am -0.6 -4.0 -0.9 98 0.1 N 7 9 4 5 1022.6 - 0.0
28/02:00am 1.8 -0.7 1.5 98 0.1 N 4 7 2 4 1022.9 1023.2 0.0
28/01:30am 0.8 -2.4 0.5 98 0.1 N 7 9 4 5 1023.4 - 0.0
28/01:00am 0.7 -1.6 0.4 98 0.1 N 2 9 1 5 1023.5 1023.8 0.0
28/12:30am 2.0 0.3 1.7 98 0.1 CALM 0 0 0 0 1023.6 - 0.0
28/12:00am 2.4 -0.6 2.1 98 0.1 W 7 7 4 4 1023.9 1024.3 0.0
 
Date/Time
EST
Temp
°C
App
Temp
°C
Dew
Point
Rel
Hum
%
Delta-T
°C
Wind Press
QNH
hPa
Press
MSL
hPa
Rain
since 9 am
mm
Dir
 
Spd
km/h
Gust
km/h
Spd
kts
Gust
kts
27/11:30pm 2.5 -0.5 2.2 98 0.1 W 7 9 4 5 1024.6 - 0.0
27/11:00pm 2.1 -1.3 1.8 98 0.1 W 9 11 5 6 1024.8 1025.2 0.0
27/10:30pm 2.3 0.6 2.0 98 0.1 CALM 0 0 0 0 1025.0 - 0.0
27/10:00pm 1.8 -1.1 1.5 98 0.1 WNW 6 7 3 4 1025.1 1025.5 0.0
27/09:30pm 2.5 -0.8 2.2 98 0.1 WSW 9 13 5 7 1025.0 - 0.0
27/09:00pm 3.2 -0.4 2.9 98 0.1 W 11 13 6 7 1025.1 1025.5 0.0
27/08:30pm 2.6 -0.2 1.9 95 0.3 WNW 6 9 3 5 1025.5 - 0.0
27/08:00pm 3.7 -0.4 2.5 92 0.5 W 13 13 7 7 1025.5 1025.9 0.0
27/07:30pm 4.0 0.7 2.2 88 0.8 W 9 11 5 6 1024.9 - 0.0
27/07:00pm 5.1 1.8 2.6 84 1.1 WNW 9 11 5 6 1024.7 1025.1 0.0
27/06:30pm 5.4 2.2 2.8 83 1.1 W 9 13 5 7 1024.6 - 0.0
27/06:00pm 5.7 2.0 2.2 78 1.5 W 11 15 6 8 1024.2 1024.6 0.0
27/05:30pm 7.1 3.1 2.8 74 1.9 W 13 15 7 8 1024.0 - 0.0
27/05:00pm 9.3 5.4 3.3 66 2.8 W 13 17 7 9 1023.9 1024.3 0.0
27/04:30pm 10.6 5.9 3.4 61 3.4 W 17 20 9 11 1023.6 - 0.0
27/04:00pm 11.2 6.5 3.3 58 3.7 W 17 22 9 12 1023.5 1023.8 0.0
27/03:30pm 11.5 6.4 2.8 55 4.0 W 19 22 10 12 1023.4 - 0.0
27/03:00pm 11.7 6.5 2.7 54 4.2 W 19 26 10 14 1023.2 1023.6 0.0
27/02:30pm 11.8 6.7 3.1 55 4.1 W 19 26 10 14 1023.2 - 0.0
27/02:00pm 11.3 6.5 2.6 55 4.0 W 17 24 9 13 1023.1 1023.5 0.0
27/01:30pm 11.3 6.1 2.3 54 4.1 W 19 28 10 15 1023.4 - 0.0

Other Formats:

Comma delimited format used in spreadsheet applications
http://www.bom.gov.au/fwo/IDN60801/IDN60801.95773.axf

JavaScript Object Notation format (JSON) in row-major order
http://www.bom.gov.au/fwo/IDN60801/IDN60801.95773.json